sensor_id;sensor_type;location;lat;lon;timestamp;P1;durP1;ratioP1;P2;durP2;ratioP2
46322;SDS011;32044;52.386;13.278;2022-09-13T00:00:31;5.20;;;4.50;;
46322;SDS011;32044;52.386;13.278;2022-09-13T00:02:56;4.50;;;4.10;;
46322;SDS011;32044;52.386;13.278;2022-09-13T00:05:22;4.10;;;3.70;;
46322;SDS011;32044;52.386;13.278;2022-09-13T00:07:47;6.78;;;4.53;;
46322;SDS011;32044;52.386;13.278;2022-09-13T00:10:12;4.68;;;4.28;;
46322;SDS011;32044;52.386;13.278;2022-09-13T00:12:37;4.50;;;4.10;;
46322;SDS011;32044;52.386;13.278;2022-09-13T00:15:03;5.25;;;4.75;;
46322;SDS011;32044;52.386;13.278;2022-09-13T00:17:28;6.93;;;4.53;;
46322;SDS011;32044;52.386;13.278;2022-09-13T00:19:54;5.88;;;4.60;;
46322;SDS011;32044;52.386;13.278;2022-09-13T00:22:19;4.82;;;4.30;;
46322;SDS011;32044;52.386;13.278;2022-09-13T00:24:44;3.67;;;3.38;;
46322;SDS011;32044;52.386;13.278;2022-09-13T00:27:10;4.63;;;3.50;;
46322;SDS011;32044;52.386;13.278;2022-09-13T00:29:36;6.07;;;4.35;;
46322;SDS011;32044;52.386;13.278;2022-09-13T00:32:02;4.82;;;4.15;;
46322;SDS011;32044;52.386;13.278;2022-09-13T00:34:27;4.28;;;3.88;;
46322;SDS011;32044;52.386;13.278;2022-09-13T00:36:52;4.80;;;4.20;;
46322;SDS011;32044;52.386;13.278;2022-09-13T00:39:17;7.53;;;4.35;;
46322;SDS011;32044;52.386;13.278;2022-09-13T00:41:43;5.70;;;4.70;;
46322;SDS011;32044;52.386;13.278;2022-09-13T00:47:26;6.40;;;4.60;;
46322;SDS011;32044;52.386;13.278;2022-09-13T00:50:08;5.75;;;4.45;;
46322;SDS011;32044;52.386;13.278;2022-09-13T00:52:35;4.70;;;4.10;;
46322;SDS011;32044;52.386;13.278;2022-09-13T00:55:12;5.72;;;4.63;;
46322;SDS011;32044;52.386;13.278;2022-09-13T00:57:50;7.47;;;4.40;;
46322;SDS011;32044;52.386;13.278;2022-09-13T01:00:16;6.07;;;3.90;;
46322;SDS011;32044;52.386;13.278;2022-09-13T01:02:44;4.85;;;4.45;;
46322;SDS011;32044;52.386;13.278;2022-09-13T01:05:13;3.75;;;3.45;;
46322;SDS011;32044;52.386;13.278;2022-09-13T01:07:39;3.85;;;3.53;;
46322;SDS011;32044;52.386;13.278;2022-09-13T01:10:05;4.10;;;3.35;;
46322;SDS011;32044;52.386;13.278;2022-09-13T01:12:51;3.28;;;2.97;;
46322;SDS011;32044;52.386;13.278;2022-09-13T01:15:20;4.30;;;3.90;;
46322;SDS011;32044;52.386;13.278;2022-09-13T01:17:45;3.40;;;3.10;;
46322;SDS011;32044;52.386;13.278;2022-09-13T01:20:10;3.58;;;3.28;;
46322;SDS011;32044;52.386;13.278;2022-09-13T01:22:39;3.95;;;3.65;;
46322;SDS011;32044;52.386;13.278;2022-09-13T01:25:25;3.58;;;3.28;;
46322;SDS011;32044;52.386;13.278;2022-09-13T01:30:51;3.70;;;3.30;;
46322;SDS011;32044;52.386;13.278;2022-09-13T01:33:44;3.28;;;3.00;;
46322;SDS011;32044;52.386;13.278;2022-09-13T01:36:32;3.67;;;3.38;;
46322;SDS011;32044;52.386;13.278;2022-09-13T01:39:16;3.67;;;3.38;;
46322;SDS011;32044;52.386;13.278;2022-09-13T01:42:02;4.85;;;4.22;;
46322;SDS011;32044;52.386;13.278;2022-09-13T01:44:48;4.05;;;3.70;;
46322;SDS011;32044;52.386;13.278;2022-09-13T01:48:17;4.25;;;3.85;;
46322;SDS011;32044;52.386;13.278;2022-09-13T01:50:32;5.53;;;4.45;;
46322;SDS011;32044;52.386;13.278;2022-09-13T01:53:04;4.30;;;3.90;;
46322;SDS011;32044;52.386;13.278;2022-09-13T02:01:00;4.35;;;3.95;;
46322;SDS011;32044;52.386;13.278;2022-09-13T02:03:30;6.70;;;4.05;;
46322;SDS011;32044;52.386;13.278;2022-09-13T02:06:21;4.85;;;3.58;;
46322;SDS011;32044;52.386;13.278;2022-09-13T02:08:59;4.65;;;3.22;;
46322;SDS011;32044;52.386;13.278;2022-09-13T02:11:26;4.40;;;4.00;;
46322;SDS011;32044;52.386;13.278;2022-09-13T02:13:56;5.68;;;4.30;;
46322;SDS011;32044;52.386;13.278;2022-09-13T02:16:33;5.75;;;5.03;;
46322;SDS011;32044;52.386;13.278;2022-09-13T02:19:12;6.05;;;5.45;;
46322;SDS011;32044;52.386;13.278;2022-09-13T02:21:42;5.70;;;5.20;;
46322;SDS011;32044;52.386;13.278;2022-09-13T02:24:10;6.10;;;5.32;;
46322;SDS011;32044;52.386;13.278;2022-09-13T02:26:39;5.53;;;5.03;;
46322;SDS011;32044;52.386;13.278;2022-09-13T02:29:10;5.63;;;5.10;;
46322;SDS011;32044;52.386;13.278;2022-09-13T02:31:45;6.85;;;5.15;;
46322;SDS011;32044;52.386;13.278;2022-09-13T02:34:14;6.20;;;5.60;;
46322;SDS011;32044;52.386;13.278;2022-09-13T02:36:43;5.68;;;4.95;;
46322;SDS011;32044;52.386;13.278;2022-09-13T02:39:11;6.35;;;5.80;;
46322;SDS011;32044;52.386;13.278;2022-09-13T02:41:47;5.90;;;5.22;;
46322;SDS011;32044;52.386;13.278;2022-09-13T02:44:23;6.72;;;6.13;;
46322;SDS011;32044;52.386;13.278;2022-09-13T02:49:47;7.68;;;6.68;;
46322;SDS011;32044;52.386;13.278;2022-09-13T02:52:20;6.35;;;5.68;;
46322;SDS011;32044;52.386;13.278;2022-09-13T02:54:55;6.18;;;5.63;;
46322;SDS011;32044;52.386;13.278;2022-09-13T02:57:33;6.15;;;5.55;;
46322;SDS011;32044;52.386;13.278;2022-09-13T03:00:02;7.28;;;6.57;;
46322;SDS011;32044;52.386;13.278;2022-09-13T03:02:30;9.18;;;6.47;;
46322;SDS011;32044;52.386;13.278;2022-09-13T03:04:57;9.25;;;6.43;;
46322;SDS011;32044;52.386;13.278;2022-09-13T03:07:23;7.82;;;5.45;;
46322;SDS011;32044;52.386;13.278;2022-09-13T03:09:50;7.63;;;6.30;;
46322;SDS011;32044;52.386;13.278;2022-09-13T03:26:02;6.18;;;5.68;;
46322;SDS011;32044;52.386;13.278;2022-09-13T03:28:33;6.60;;;5.90;;
46322;SDS011;32044;52.386;13.278;2022-09-13T03:31:20;7.32;;;6.57;;
46322;SDS011;32044;52.386;13.278;2022-09-13T03:33:55;9.27;;;7.72;;
46322;SDS011;32044;52.386;13.278;2022-09-13T03:36:24;7.13;;;6.43;;
46322;SDS011;32044;52.386;13.278;2022-09-13T03:41:23;7.95;;;7.15;;
46322;SDS011;32044;52.386;13.278;2022-09-13T03:43:58;7.50;;;6.80;;
46322;SDS011;32044;52.386;13.278;2022-09-13T03:49:01;7.22;;;6.53;;
46322;SDS011;32044;52.386;13.278;2022-09-13T03:51:29;8.67;;;7.43;;
46322;SDS011;32044;52.386;13.278;2022-09-13T03:53:55;9.05;;;8.05;;
46322;SDS011;32044;52.386;13.278;2022-09-13T03:56:24;8.68;;;7.78;;
46322;SDS011;32044;52.386;13.278;2022-09-13T03:58:49;9.27;;;8.25;;
46322;SDS011;32044;52.386;13.278;2022-09-13T04:01:21;8.77;;;7.85;;
46322;SDS011;32044;52.386;13.278;2022-09-13T04:03:47;9.02;;;8.07;;
46322;SDS011;32044;52.386;13.278;2022-09-13T04:06:13;9.82;;;8.45;;
46322;SDS011;32044;52.386;13.278;2022-09-13T04:08:38;10.27;;;8.50;;
46322;SDS011;32044;52.386;13.278;2022-09-13T04:11:03;11.32;;;8.27;;
46322;SDS011;32044;52.386;13.278;2022-09-13T04:13:29;9.68;;;8.68;;
46322;SDS011;32044;52.386;13.278;2022-09-13T04:15:54;10.60;;;8.45;;
46322;SDS011;32044;52.386;13.278;2022-09-13T04:18:24;9.85;;;8.63;;
46322;SDS011;32044;52.386;13.278;2022-09-13T04:20:53;10.43;;;8.63;;
46322;SDS011;32044;52.386;13.278;2022-09-13T04:23:20;16.38;;;8.95;;
46322;SDS011;32044;52.386;13.278;2022-09-13T04:25:45;9.13;;;8.20;;
46322;SDS011;32044;52.386;13.278;2022-09-13T04:28:11;14.93;;;8.35;;
46322;SDS011;32044;52.386;13.278;2022-09-13T04:30:36;9.18;;;8.38;;
46322;SDS011;32044;52.386;13.278;2022-09-13T04:33:01;10.20;;;8.80;;
46322;SDS011;32044;52.386;13.278;2022-09-13T04:35:26;11.52;;;8.68;;
46322;SDS011;32044;52.386;13.278;2022-09-13T04:37:55;9.52;;;8.65;;
46322;SDS011;32044;52.386;13.278;2022-09-13T04:40:21;11.05;;;9.30;;
46322;SDS011;32044;52.386;13.278;2022-09-13T04:42:47;14.60;;;9.50;;
46322;SDS011;32044;52.386;13.278;2022-09-13T04:45:12;10.15;;;8.95;;
46322;SDS011;32044;52.386;13.278;2022-09-13T04:47:38;11.23;;;8.60;;
46322;SDS011;32044;52.386;13.278;2022-09-13T04:50:03;9.95;;;9.05;;
46322;SDS011;32044;52.386;13.278;2022-09-13T04:52:28;11.23;;;9.05;;
46322;SDS011;32044;52.386;13.278;2022-09-13T04:54:54;10.98;;;8.73;;
46322;SDS011;32044;52.386;13.278;2022-09-13T04:57:20;11.25;;;9.10;;
46322;SDS011;32044;52.386;13.278;2022-09-13T04:59:46;12.18;;;8.38;;
46322;SDS011;32044;52.386;13.278;2022-09-13T05:02:11;9.80;;;8.85;;
46322;SDS011;32044;52.386;13.278;2022-09-13T05:04:36;9.70;;;8.70;;
46322;SDS011;32044;52.386;13.278;2022-09-13T05:07:02;11.27;;;9.82;;
46322;SDS011;32044;52.386;13.278;2022-09-13T05:09:28;13.07;;;10.00;;
46322;SDS011;32044;52.386;13.278;2022-09-13T05:11:53;11.95;;;9.23;;
46322;SDS011;32044;52.386;13.278;2022-09-13T05:14:19;13.52;;;9.45;;
46322;SDS011;32044;52.386;13.278;2022-09-13T05:16:44;9.73;;;8.40;;
46322;SDS011;32044;52.386;13.278;2022-09-13T05:19:10;10.43;;;9.15;;
46322;SDS011;32044;52.386;13.278;2022-09-13T05:21:36;9.95;;;8.95;;
46322;SDS011;32044;52.386;13.278;2022-09-13T05:24:01;14.50;;;9.75;;
46322;SDS011;32044;52.386;13.278;2022-09-13T05:26:27;10.30;;;9.00;;
46322;SDS011;32044;52.386;13.278;2022-09-13T05:28:57;10.38;;;9.38;;
46322;SDS011;32044;52.386;13.278;2022-09-13T05:31:28;14.82;;;8.80;;
46322;SDS011;32044;52.386;13.278;2022-09-13T05:33:56;13.73;;;8.80;;
46322;SDS011;32044;52.386;13.278;2022-09-13T05:36:23;11.80;;;9.10;;
46322;SDS011;32044;52.386;13.278;2022-09-13T05:38:50;10.23;;;8.02;;
46322;SDS011;32044;52.386;13.278;2022-09-13T05:41:16;10.65;;;8.88;;
46322;SDS011;32044;52.386;13.278;2022-09-13T05:43:42;8.48;;;7.20;;
46322;SDS011;32044;52.386;13.278;2022-09-13T05:46:09;10.00;;;7.93;;
46322;SDS011;32044;52.386;13.278;2022-09-13T05:48:35;11.30;;;8.55;;
46322;SDS011;32044;52.386;13.278;2022-09-13T05:51:20;10.75;;;8.18;;
46322;SDS011;32044;52.386;13.278;2022-09-13T05:53:47;8.27;;;7.35;;
46322;SDS011;32044;52.386;13.278;2022-09-13T05:56:17;8.98;;;7.63;;
46322;SDS011;32044;52.386;13.278;2022-09-13T05:58:45;9.98;;;7.45;;
46322;SDS011;32044;52.386;13.278;2022-09-13T06:01:12;13.40;;;9.35;;
46322;SDS011;32044;52.386;13.278;2022-09-13T06:03:38;9.43;;;7.38;;
46322;SDS011;32044;52.386;13.278;2022-09-13T06:06:04;9.05;;;7.93;;
46322;SDS011;32044;52.386;13.278;2022-09-13T06:08:30;7.97;;;7.18;;
46322;SDS011;32044;52.386;13.278;2022-09-13T06:10:57;12.98;;;8.15;;
46322;SDS011;32044;52.386;13.278;2022-09-13T06:13:23;8.57;;;7.07;;
46322;SDS011;32044;52.386;13.278;2022-09-13T06:15:49;11.82;;;7.55;;
46322;SDS011;32044;52.386;13.278;2022-09-13T06:18:15;9.52;;;7.57;;
46322;SDS011;32044;52.386;13.278;2022-09-13T06:20:41;9.63;;;7.90;;
46322;SDS011;32044;52.386;13.278;2022-09-13T06:23:06;14.35;;;8.77;;
46322;SDS011;32044;52.386;13.278;2022-09-13T06:25:32;12.60;;;8.85;;
46322;SDS011;32044;52.386;13.278;2022-09-13T06:27:57;13.70;;;8.88;;
46322;SDS011;32044;52.386;13.278;2022-09-13T06:30:22;11.50;;;8.77;;
46322;SDS011;32044;52.386;13.278;2022-09-13T06:32:47;16.88;;;9.68;;
46322;SDS011;32044;52.386;13.278;2022-09-13T06:35:13;8.93;;;8.05;;
46322;SDS011;32044;52.386;13.278;2022-09-13T06:37:38;13.30;;;9.05;;
46322;SDS011;32044;52.386;13.278;2022-09-13T06:40:03;16.73;;;9.77;;
46322;SDS011;32044;52.386;13.278;2022-09-13T06:42:32;12.05;;;9.48;;
46322;SDS011;32044;52.386;13.278;2022-09-13T06:44:58;12.98;;;9.80;;
46322;SDS011;32044;52.386;13.278;2022-09-13T06:47:23;10.45;;;9.35;;
46322;SDS011;32044;52.386;13.278;2022-09-13T06:49:49;12.02;;;10.07;;
46322;SDS011;32044;52.386;13.278;2022-09-13T06:52:15;13.75;;;9.88;;
46322;SDS011;32044;52.386;13.278;2022-09-13T06:54:40;12.60;;;10.93;;
46322;SDS011;32044;52.386;13.278;2022-09-13T06:57:05;10.98;;;9.88;;
46322;SDS011;32044;52.386;13.278;2022-09-13T06:59:30;10.40;;;9.40;;
46322;SDS011;32044;52.386;13.278;2022-09-13T07:01:56;15.25;;;11.77;;
46322;SDS011;32044;52.386;13.278;2022-09-13T07:04:21;13.45;;;10.35;;
46322;SDS011;32044;52.386;13.278;2022-09-13T07:06:48;14.07;;;10.85;;
46322;SDS011;32044;52.386;13.278;2022-09-13T07:09:15;11.32;;;10.02;;
46322;SDS011;32044;52.386;13.278;2022-09-13T07:11:43;11.85;;;10.40;;
46322;SDS011;32044;52.386;13.278;2022-09-13T07:14:12;13.85;;;10.80;;
46322;SDS011;32044;52.386;13.278;2022-09-13T07:16:39;12.77;;;10.65;;
46322;SDS011;32044;52.386;13.278;2022-09-13T07:19:24;11.10;;;9.90;;
46322;SDS011;32044;52.386;13.278;2022-09-13T07:21:53;13.38;;;9.15;;
46322;SDS011;32044;52.386;13.278;2022-09-13T07:24:19;11.05;;;9.20;;
46322;SDS011;32044;52.386;13.278;2022-09-13T07:26:46;10.32;;;8.50;;
46322;SDS011;32044;52.386;13.278;2022-09-13T07:29:12;11.52;;;9.50;;
46322;SDS011;32044;52.386;13.278;2022-09-13T07:31:40;13.95;;;9.85;;
46322;SDS011;32044;52.386;13.278;2022-09-13T07:34:14;14.52;;;10.07;;
46322;SDS011;32044;52.386;13.278;2022-09-13T07:36:44;17.50;;;11.85;;
46322;SDS011;32044;52.386;13.278;2022-09-13T07:39:10;11.52;;;10.02;;
46322;SDS011;32044;52.386;13.278;2022-09-13T07:41:36;12.35;;;10.35;;
46322;SDS011;32044;52.386;13.278;2022-09-13T07:44:01;10.80;;;9.23;;
46322;SDS011;32044;52.386;13.278;2022-09-13T07:46:29;11.27;;;9.85;;
46322;SDS011;32044;52.386;13.278;2022-09-13T07:48:58;10.88;;;9.45;;
46322;SDS011;32044;52.386;13.278;2022-09-13T07:51:25;13.60;;;9.95;;
46322;SDS011;32044;52.386;13.278;2022-09-13T07:53:54;13.50;;;9.80;;
46322;SDS011;32044;52.386;13.278;2022-09-13T07:56:22;14.38;;;9.75;;
46322;SDS011;32044;52.386;13.278;2022-09-13T07:58:49;11.48;;;8.43;;
46322;SDS011;32044;52.386;13.278;2022-09-13T08:01:17;13.48;;;9.38;;
46322;SDS011;32044;52.386;13.278;2022-09-13T08:03:44;10.15;;;8.35;;
46322;SDS011;32044;52.386;13.278;2022-09-13T08:06:15;10.35;;;9.25;;
46322;SDS011;32044;52.386;13.278;2022-09-13T08:08:40;10.55;;;9.27;;
46322;SDS011;32044;52.386;13.278;2022-09-13T08:11:05;13.50;;;9.73;;
46322;SDS011;32044;52.386;13.278;2022-09-13T08:13:31;10.02;;;8.27;;
46322;SDS011;32044;52.386;13.278;2022-09-13T08:15:59;10.65;;;9.00;;
46322;SDS011;32044;52.386;13.278;2022-09-13T08:18:25;13.45;;;9.23;;
46322;SDS011;32044;52.386;13.278;2022-09-13T08:20:51;12.32;;;9.75;;
46322;SDS011;32044;52.386;13.278;2022-09-13T08:23:20;10.48;;;8.85;;
46322;SDS011;32044;52.386;13.278;2022-09-13T08:25:45;12.90;;;8.93;;
46322;SDS011;32044;52.386;13.278;2022-09-13T08:28:15;13.15;;;9.38;;
46322;SDS011;32044;52.386;13.278;2022-09-13T08:30:41;14.63;;;8.95;;
46322;SDS011;32044;52.386;13.278;2022-09-13T08:33:08;10.93;;;9.43;;
46322;SDS011;32044;52.386;13.278;2022-09-13T08:35:35;10.75;;;8.88;;
46322;SDS011;32044;52.386;13.278;2022-09-13T08:38:00;10.60;;;8.40;;
46322;SDS011;32044;52.386;13.278;2022-09-13T08:40:29;13.05;;;8.90;;
46322;SDS011;32044;52.386;13.278;2022-09-13T08:42:58;11.18;;;8.52;;
46322;SDS011;32044;52.386;13.278;2022-09-13T08:45:53;10.90;;;8.93;;
46322;SDS011;32044;52.386;13.278;2022-09-13T08:48:34;10.25;;;8.77;;
46322;SDS011;32044;52.386;13.278;2022-09-13T08:51:11;12.50;;;9.10;;
46322;SDS011;32044;52.386;13.278;2022-09-13T08:53:48;8.95;;;8.02;;
46322;SDS011;32044;52.386;13.278;2022-09-13T08:56:17;10.18;;;9.02;;
46322;SDS011;32044;52.386;13.278;2022-09-13T08:58:56;11.88;;;8.88;;
46322;SDS011;32044;52.386;13.278;2022-09-13T09:01:34;12.38;;;8.50;;
46322;SDS011;32044;52.386;13.278;2022-09-13T09:04:33;11.90;;;8.95;;
46322;SDS011;32044;52.386;13.278;2022-09-13T09:09:33;8.93;;;7.75;;
46322;SDS011;32044;52.386;13.278;2022-09-13T09:12:14;10.45;;;7.72;;
46322;SDS011;32044;52.386;13.278;2022-09-13T09:14:52;12.88;;;8.25;;
46322;SDS011;32044;52.386;13.278;2022-09-13T09:17:23;10.00;;;7.47;;
46322;SDS011;32044;52.386;13.278;2022-09-13T09:20:38;10.75;;;7.85;;
46322;SDS011;32044;52.386;13.278;2022-09-13T09:22:45;9.88;;;8.40;;
46322;SDS011;32044;52.386;13.278;2022-09-13T09:25:11;14.95;;;8.52;;
46322;SDS011;32044;52.386;13.278;2022-09-13T09:27:36;10.88;;;7.85;;
46322;SDS011;32044;52.386;13.278;2022-09-13T09:30:02;9.73;;;8.00;;
46322;SDS011;32044;52.386;13.278;2022-09-13T09:32:42;8.38;;;7.32;;
46322;SDS011;32044;52.386;13.278;2022-09-13T09:35:18;10.50;;;7.95;;
46322;SDS011;32044;52.386;13.278;2022-09-13T09:38:20;11.82;;;8.35;;
46322;SDS011;32044;52.386;13.278;2022-09-13T09:40:51;9.18;;;7.78;;
46322;SDS011;32044;52.386;13.278;2022-09-13T09:43:19;8.52;;;6.75;;
46322;SDS011;32044;52.386;13.278;2022-09-13T09:45:54;8.73;;;7.50;;
46322;SDS011;32044;52.386;13.278;2022-09-13T09:48:23;9.35;;;7.50;;
46322;SDS011;32044;52.386;13.278;2022-09-13T09:50:54;13.00;;;7.15;;
46322;SDS011;32044;52.386;13.278;2022-09-13T09:53:25;9.50;;;7.40;;
46322;SDS011;32044;52.386;13.278;2022-09-13T09:56:01;9.75;;;8.40;;
46322;SDS011;32044;52.386;13.278;2022-09-13T09:58:43;9.90;;;7.22;;
46322;SDS011;32044;52.386;13.278;2022-09-13T10:01:28;8.77;;;6.22;;
46322;SDS011;32044;52.386;13.278;2022-09-13T10:06:36;6.57;;;5.88;;
46322;SDS011;32044;52.386;13.278;2022-09-13T10:09:03;7.60;;;6.38;;
46322;SDS011;32044;52.386;13.278;2022-09-13T10:22:38;9.43;;;7.05;;
46322;SDS011;32044;52.386;13.278;2022-09-13T10:27:48;7.45;;;5.93;;
46322;SDS011;32044;52.386;13.278;2022-09-13T10:30:30;7.72;;;6.45;;
46322;SDS011;32044;52.386;13.278;2022-09-13T10:32:57;8.15;;;6.38;;
46322;SDS011;32044;52.386;13.278;2022-09-13T10:35:22;7.47;;;6.10;;
46322;SDS011;32044;52.386;13.278;2022-09-13T10:37:48;7.28;;;6.30;;
46322;SDS011;32044;52.386;13.278;2022-09-13T10:40:25;9.23;;;6.47;;
46322;SDS011;32044;52.386;13.278;2022-09-13T10:42:53;6.97;;;5.75;;
46322;SDS011;32044;52.386;13.278;2022-09-13T10:45:21;9.90;;;6.95;;
46322;SDS011;32044;52.386;13.278;2022-09-13T10:47:49;6.32;;;5.68;;
46322;SDS011;32044;52.386;13.278;2022-09-13T10:50:26;6.75;;;5.78;;
46322;SDS011;32044;52.386;13.278;2022-09-13T10:52:53;8.60;;;6.57;;
46322;SDS011;32044;52.386;13.278;2022-09-13T10:55:24;6.72;;;6.03;;
46322;SDS011;32044;52.386;13.278;2022-09-13T10:57:52;7.90;;;5.55;;
46322;SDS011;32044;52.386;13.278;2022-09-13T11:00:19;7.57;;;6.03;;
46322;SDS011;32044;52.386;13.278;2022-09-13T11:05:53;7.57;;;5.68;;
46322;SDS011;32044;52.386;13.278;2022-09-13T11:11:09;7.10;;;5.15;;
46322;SDS011;32044;52.386;13.278;2022-09-13T11:14:04;7.80;;;5.95;;
46322;SDS011;32044;52.386;13.278;2022-09-13T11:19:43;7.55;;;6.70;;
46322;SDS011;32044;52.386;13.278;2022-09-13T11:25:42;8.82;;;6.97;;
46322;SDS011;32044;52.386;13.278;2022-09-13T11:28:25;9.55;;;7.88;;
46322;SDS011;32044;52.386;13.278;2022-09-13T11:37:14;8.00;;;7.30;;
46322;SDS011;32044;52.386;13.278;2022-09-13T11:40:07;8.35;;;7.45;;
46322;SDS011;32044;52.386;13.278;2022-09-13T11:42:38;10.45;;;8.00;;
46322;SDS011;32044;52.386;13.278;2022-09-13T11:45:33;10.07;;;8.18;;
46322;SDS011;32044;52.386;13.278;2022-09-13T11:56:13;10.90;;;8.25;;
46322;SDS011;32044;52.386;13.278;2022-09-13T12:01:36;11.52;;;9.95;;
46322;SDS011;32044;52.386;13.278;2022-09-13T12:04:10;11.25;;;9.68;;
46322;SDS011;32044;52.386;13.278;2022-09-13T12:06:40;10.60;;;9.32;;
46322;SDS011;32044;52.386;13.278;2022-09-13T12:12:22;8.05;;;7.22;;
46322;SDS011;32044;52.386;13.278;2022-09-13T12:14:36;11.52;;;9.15;;
46322;SDS011;32044;52.386;13.278;2022-09-13T12:17:09;9.02;;;7.20;;
46322;SDS011;32044;52.386;13.278;2022-09-13T12:19:45;8.60;;;7.72;;
46322;SDS011;32044;52.386;13.278;2022-09-13T12:22:13;10.90;;;7.90;;
46322;SDS011;32044;52.386;13.278;2022-09-13T12:24:44;7.75;;;7.05;;
46322;SDS011;32044;52.386;13.278;2022-09-13T12:27:19;10.80;;;8.13;;
46322;SDS011;32044;52.386;13.278;2022-09-13T12:30:20;9.68;;;8.60;;
46322;SDS011;32044;52.386;13.278;2022-09-13T12:32:38;8.70;;;7.80;;
46322;SDS011;32044;52.386;13.278;2022-09-13T12:35:07;9.38;;;8.32;;
46322;SDS011;32044;52.386;13.278;2022-09-13T12:37:47;10.73;;;7.82;;
46322;SDS011;32044;52.386;13.278;2022-09-13T12:43:48;9.65;;;8.07;;
46322;SDS011;32044;52.386;13.278;2022-09-13T12:50:05;9.10;;;7.82;;
46322;SDS011;32044;52.386;13.278;2022-09-13T12:52:44;11.40;;;8.50;;
46322;SDS011;32044;52.386;13.278;2022-09-13T13:03:22;10.95;;;8.05;;
46322;SDS011;32044;52.386;13.278;2022-09-13T13:05:54;9.32;;;7.90;;
46322;SDS011;32044;52.386;13.278;2022-09-13T13:08:31;14.20;;;8.75;;
46322;SDS011;32044;52.386;13.278;2022-09-13T13:11:02;8.63;;;7.80;;
46322;SDS011;32044;52.386;13.278;2022-09-13T13:13:40;12.30;;;7.55;;
46322;SDS011;32044;52.386;13.278;2022-09-13T13:16:24;11.15;;;8.10;;
46322;SDS011;32044;52.386;13.278;2022-09-13T13:19:02;10.30;;;8.80;;
46322;SDS011;32044;52.386;13.278;2022-09-13T13:21:46;12.65;;;9.60;;
46322;SDS011;32044;52.386;13.278;2022-09-13T13:29:31;16.10;;;9.57;;
46322;SDS011;32044;52.386;13.278;2022-09-13T13:37:33;13.00;;;10.07;;
46322;SDS011;32044;52.386;13.278;2022-09-13T13:39:34;11.85;;;9.88;;
46322;SDS011;32044;52.386;13.278;2022-09-13T13:52:36;10.15;;;9.10;;
46322;SDS011;32044;52.386;13.278;2022-09-13T14:00:32;17.60;;;9.50;;
46322;SDS011;32044;52.386;13.278;2022-09-13T14:03:06;12.55;;;9.35;;
46322;SDS011;32044;52.386;13.278;2022-09-13T14:05:45;9.75;;;8.45;;
46322;SDS011;32044;52.386;13.278;2022-09-13T14:08:21;10.55;;;9.02;;
46322;SDS011;32044;52.386;13.278;2022-09-13T14:10:56;12.63;;;10.48;;
46322;SDS011;32044;52.386;13.278;2022-09-13T14:13:42;14.90;;;8.98;;
46322;SDS011;32044;52.386;13.278;2022-09-13T14:19:01;11.50;;;8.60;;
46322;SDS011;32044;52.386;13.278;2022-09-13T14:21:38;13.32;;;8.07;;
46322;SDS011;32044;52.386;13.278;2022-09-13T14:24:07;11.93;;;9.10;;
46322;SDS011;32044;52.386;13.278;2022-09-13T14:26:33;11.13;;;8.15;;
46322;SDS011;32044;52.386;13.278;2022-09-13T14:28:59;11.63;;;8.23;;
46322;SDS011;32044;52.386;13.278;2022-09-13T14:31:24;9.75;;;7.80;;
46322;SDS011;32044;52.386;13.278;2022-09-13T14:33:50;9.23;;;8.25;;
46322;SDS011;32044;52.386;13.278;2022-09-13T14:36:18;10.05;;;8.23;;
46322;SDS011;32044;52.386;13.278;2022-09-13T14:38:51;8.90;;;7.63;;
46322;SDS011;32044;52.386;13.278;2022-09-13T14:41:19;10.32;;;6.78;;
46322;SDS011;32044;52.386;13.278;2022-09-13T14:43:45;8.68;;;7.78;;
46322;SDS011;32044;52.386;13.278;2022-09-13T14:46:22;9.93;;;7.15;;
46322;SDS011;32044;52.386;13.278;2022-09-13T14:48:54;8.85;;;7.43;;
46322;SDS011;32044;52.386;13.278;2022-09-13T14:51:25;9.55;;;7.50;;
46322;SDS011;32044;52.386;13.278;2022-09-13T14:54:38;9.95;;;7.57;;
46322;SDS011;32044;52.386;13.278;2022-09-13T14:56:41;10.85;;;7.93;;
46322;SDS011;32044;52.386;13.278;2022-09-13T14:59:18;8.15;;;6.53;;
46322;SDS011;32044;52.386;13.278;2022-09-13T15:01:50;8.23;;;6.70;;
46322;SDS011;32044;52.386;13.278;2022-09-13T15:04:15;9.60;;;7.03;;
46322;SDS011;32044;52.386;13.278;2022-09-13T15:06:41;6.32;;;5.65;;
46322;SDS011;32044;52.386;13.278;2022-09-13T15:11:37;6.63;;;5.20;;
46322;SDS011;32044;52.386;13.278;2022-09-13T15:14:20;7.68;;;5.35;;
46322;SDS011;32044;52.386;13.278;2022-09-13T15:16:52;5.95;;;4.93;;
46322;SDS011;32044;52.386;13.278;2022-09-13T15:21:47;4.78;;;4.28;;
46322;SDS011;32044;52.386;13.278;2022-09-13T15:24:17;6.53;;;4.30;;
46322;SDS011;32044;52.386;13.278;2022-09-13T15:26:45;3.90;;;3.60;;
46322;SDS011;32044;52.386;13.278;2022-09-13T15:29:13;4.60;;;4.15;;
46322;SDS011;32044;52.386;13.278;2022-09-13T15:31:42;4.68;;;4.00;;
46322;SDS011;32044;52.386;13.278;2022-09-13T15:36:42;5.38;;;4.00;;
46322;SDS011;32044;52.386;13.278;2022-09-13T15:39:15;4.22;;;3.80;;
46322;SDS011;32044;52.386;13.278;2022-09-13T15:44:24;4.60;;;3.95;;
46322;SDS011;32044;52.386;13.278;2022-09-13T15:46:51;4.85;;;4.32;;
46322;SDS011;32044;52.386;13.278;2022-09-13T15:49:18;5.68;;;4.57;;
46322;SDS011;32044;52.386;13.278;2022-09-13T15:51:45;4.18;;;3.78;;
46322;SDS011;32044;52.386;13.278;2022-09-13T15:54:11;5.43;;;3.92;;
46322;SDS011;32044;52.386;13.278;2022-09-13T15:56:38;4.95;;;3.70;;
46322;SDS011;32044;52.386;13.278;2022-09-13T15:59:07;4.50;;;3.75;;
46322;SDS011;32044;52.386;13.278;2022-09-13T16:01:35;6.10;;;3.90;;
46322;SDS011;32044;52.386;13.278;2022-09-13T16:04:00;4.78;;;4.22;;
46322;SDS011;32044;52.386;13.278;2022-09-13T16:06:27;4.35;;;3.67;;
46322;SDS011;32044;52.386;13.278;2022-09-13T16:08:53;5.13;;;3.83;;
46322;SDS011;32044;52.386;13.278;2022-09-13T16:11:18;4.30;;;3.47;;
46322;SDS011;32044;52.386;13.278;2022-09-13T16:13:44;4.47;;;3.90;;
46322;SDS011;32044;52.386;13.278;2022-09-13T16:16:10;4.28;;;3.35;;
46322;SDS011;32044;52.386;13.278;2022-09-13T16:18:37;5.28;;;3.90;;
46322;SDS011;32044;52.386;13.278;2022-09-13T16:21:03;4.90;;;3.78;;
46322;SDS011;32044;52.386;13.278;2022-09-13T16:23:29;3.88;;;3.42;;
46322;SDS011;32044;52.386;13.278;2022-09-13T16:25:55;5.47;;;3.83;;
46322;SDS011;32044;52.386;13.278;2022-09-13T16:28:21;4.20;;;3.80;;
46322;SDS011;32044;52.386;13.278;2022-09-13T16:30:46;4.05;;;3.33;;
46322;SDS011;32044;52.386;13.278;2022-09-13T16:33:12;4.22;;;3.55;;
46322;SDS011;32044;52.386;13.278;2022-09-13T16:35:37;4.15;;;3.65;;
46322;SDS011;32044;52.386;13.278;2022-09-13T16:38:02;4.43;;;3.72;;
46322;SDS011;32044;52.386;13.278;2022-09-13T16:40:28;4.10;;;3.70;;
46322;SDS011;32044;52.386;13.278;2022-09-13T16:42:53;5.80;;;4.00;;
46322;SDS011;32044;52.386;13.278;2022-09-13T16:45:19;4.15;;;3.60;;
46322;SDS011;32044;52.386;13.278;2022-09-13T16:47:44;5.57;;;3.90;;
46322;SDS011;32044;52.386;13.278;2022-09-13T16:50:09;4.18;;;3.50;;
46322;SDS011;32044;52.386;13.278;2022-09-13T16:52:35;5.85;;;3.90;;
46322;SDS011;32044;52.386;13.278;2022-09-13T16:55:02;5.78;;;3.40;;
46322;SDS011;32044;52.386;13.278;2022-09-13T16:57:28;5.72;;;3.88;;
46322;SDS011;32044;52.386;13.278;2022-09-13T16:59:54;3.38;;;3.08;;
46322;SDS011;32044;52.386;13.278;2022-09-13T17:02:22;6.03;;;3.47;;
46322;SDS011;32044;52.386;13.278;2022-09-13T17:04:48;3.70;;;3.28;;